createdAt,value
2023-06-25T00:00:40.188Z,44.41
2023-06-25T00:03:08.064Z,44.17
2023-06-25T00:05:36.046Z,44.32
2023-06-25T00:08:04.132Z,44.53
2023-06-25T00:10:32.042Z,44.30
2023-06-25T00:12:59.960Z,44.64
2023-06-25T00:15:28.770Z,44.61
2023-06-25T00:17:57.148Z,44.32
2023-06-25T00:20:27.860Z,44.36
2023-06-25T00:23:06.670Z,44.91
2023-06-25T00:25:36.274Z,45.08
2023-06-25T00:28:09.698Z,44.42
2023-06-25T00:30:39.736Z,44.50
2023-06-25T00:33:08.624Z,45.14
2023-06-25T00:35:51.579Z,45.57
2023-06-25T00:38:19.528Z,46.08
2023-06-25T00:40:47.499Z,46.24
2023-06-25T00:43:16.834Z,45.63
2023-06-25T00:45:45.968Z,45.88
2023-06-25T00:48:14.734Z,45.57
2023-06-25T00:50:43.311Z,45.64
2023-06-25T00:53:14.618Z,44.78
2023-06-25T00:55:42.482Z,45.13
2023-06-25T00:58:10.451Z,46.18
2023-06-25T01:00:38.775Z,46.34
2023-06-25T01:03:28.092Z,46.04
2023-06-25T01:06:36.844Z,46.15
2023-06-25T01:09:07.615Z,46.33
2023-06-25T01:11:36.543Z,47.04
2023-06-25T01:14:04.707Z,46.29
2023-06-25T01:16:33.210Z,46.27
2023-06-25T01:19:05.605Z,46.52
2023-06-25T01:21:35.765Z,46.74
2023-06-25T01:24:03.948Z,46.69
2023-06-25T01:26:31.970Z,46.35
2023-06-25T01:28:59.841Z,46.77
2023-06-25T01:31:32.510Z,46.06
2023-06-25T01:34:01.307Z,46.28
2023-06-25T01:36:29.303Z,46.37
2023-06-25T01:38:57.207Z,46.59
2023-06-25T01:41:25.118Z,45.94
2023-06-25T01:43:53.020Z,46.87
2023-06-25T01:46:20.975Z,46.92
2023-06-25T01:48:49.068Z,47.71
2023-06-25T01:51:16.974Z,47.29
2023-06-25T01:53:44.892Z,47.45
2023-06-25T01:56:12.897Z,47.92
2023-06-25T01:58:40.885Z,47.89
2023-06-25T02:01:08.811Z,47.56
2023-06-25T02:03:36.789Z,47.40
2023-06-25T02:06:04.787Z,47.24
2023-06-25T02:08:33.032Z,47.61
2023-06-25T02:11:02.025Z,47.65
2023-06-25T02:13:29.817Z,48.82
2023-06-25T02:15:57.985Z,48.48
2023-06-25T02:18:26.051Z,48.09
2023-06-25T02:20:54.653Z,47.89
2023-06-25T02:23:23.358Z,48.53
2023-06-25T02:25:51.575Z,48.38
2023-06-25T02:28:19.685Z,48.15
2023-06-25T02:30:48.560Z,48.37
2023-06-25T02:33:16.798Z,48.68
2023-06-25T02:35:44.806Z,49.20
2023-06-25T02:38:12.805Z,49.16
2023-06-25T02:40:40.811Z,49.58
2023-06-25T02:43:08.765Z,50.12
2023-06-25T02:45:37.033Z,50.62
2023-06-25T02:48:06.618Z,50.27
2023-06-25T02:50:34.688Z,50.23
2023-06-25T02:53:02.807Z,49.83
2023-06-25T02:55:30.645Z,49.48
2023-06-25T02:57:59.021Z,49.58
2023-06-25T03:00:26.957Z,50.55
2023-06-25T03:02:54.923Z,50.19
2023-06-25T03:05:23.251Z,50.34
2023-06-25T03:07:57.442Z,51.15
2023-06-25T03:10:31.251Z,50.48
2023-06-25T03:12:59.370Z,51.09
2023-06-25T03:15:27.977Z,51.27
2023-06-25T03:17:55.976Z,52.14
2023-06-25T03:20:24.015Z,52.21
2023-06-25T03:22:51.990Z,52.82
2023-06-25T03:25:19.999Z,52.66
2023-06-25T03:27:54.863Z,52.50
2023-06-25T03:30:22.864Z,52.59
2023-06-25T03:32:50.725Z,52.18
2023-06-25T03:35:19.697Z,52.36
2023-06-25T03:37:47.928Z,52.27
2023-06-25T03:40:16.065Z,52.75
2023-06-25T03:42:44.514Z,52.47
2023-06-25T03:45:14.541Z,52.62
2023-06-25T03:47:43.141Z,52.95
2023-06-25T03:50:11.624Z,52.95
2023-06-25T03:52:39.814Z,53.21
2023-06-25T03:55:08.569Z,52.75
2023-06-25T03:57:37.629Z,54.27
2023-06-25T04:00:07.696Z,54.38
2023-06-25T04:02:41.138Z,55.36
2023-06-25T04:05:09.717Z,55.20
2023-06-25T04:07:37.653Z,54.96
2023-06-25T04:10:06.065Z,55.26
2023-06-25T04:12:33.978Z,54.75
2023-06-25T04:15:03.012Z,54.98
2023-06-25T04:17:31.458Z,55.00
2023-06-25T04:19:59.379Z,55.65
2023-06-25T04:22:27.319Z,55.22
2023-06-25T04:24:55.371Z,54.91
2023-06-25T04:27:23.428Z,55.64
2023-06-25T04:29:51.515Z,56.22
2023-06-25T04:32:19.546Z,56.09
2023-06-25T04:34:47.476Z,56.15
2023-06-25T04:37:15.772Z,55.32
2023-06-25T04:39:43.638Z,55.34
2023-06-25T04:42:12.516Z,55.07
2023-06-25T04:44:40.519Z,55.79
2023-06-25T04:47:08.629Z,55.60
2023-06-25T04:49:37.201Z,56.36
2023-06-25T04:52:05.615Z,55.60
2023-06-25T04:54:33.610Z,54.84
2023-06-25T04:57:01.617Z,54.33
2023-06-25T04:59:29.572Z,54.31
2023-06-25T05:01:57.524Z,53.72
2023-06-25T05:04:25.450Z,53.64
2023-06-25T05:06:53.597Z,53.79
2023-06-25T05:09:21.553Z,53.32
2023-06-25T05:11:49.493Z,53.32
2023-06-25T05:14:17.521Z,52.87
2023-06-25T05:16:45.412Z,52.18
2023-06-25T05:19:13.385Z,51.66
2023-06-25T05:21:42.105Z,51.74
2023-06-25T05:24:09.929Z,51.48
2023-06-25T05:26:37.919Z,51.95
2023-06-25T05:29:06.133Z,52.17
2023-06-25T05:31:34.150Z,52.40
2023-06-25T05:34:02.021Z,52.72
2023-06-25T05:36:30.349Z,52.51
2023-06-25T05:38:58.232Z,52.70
2023-06-25T05:41:26.064Z,52.84
2023-06-25T05:43:53.973Z,52.72
2023-06-25T05:46:21.953Z,52.42
2023-06-25T05:48:49.912Z,52.00
2023-06-25T05:51:17.859Z,51.96
2023-06-25T05:53:47.226Z,51.94
2023-06-25T05:56:17.034Z,51.23
2023-06-25T05:58:45.447Z,50.42
2023-06-25T06:01:13.980Z,49.91
2023-06-25T06:03:42.317Z,49.83
2023-06-25T06:06:10.956Z,49.58
2023-06-25T06:08:39.429Z,48.81
2023-06-25T06:11:07.665Z,49.30
2023-06-25T06:13:35.948Z,48.99
2023-06-25T06:16:04.779Z,48.23
2023-06-25T06:18:33.098Z,47.58
2023-06-25T06:21:01.338Z,46.63
2023-06-25T06:23:29.789Z,46.04
2023-06-25T06:25:58.033Z,45.35
2023-06-25T06:28:26.266Z,45.69
2023-06-25T06:30:54.637Z,44.79
2023-06-25T06:33:23.274Z,44.91
2023-06-25T06:35:51.585Z,44.94
2023-06-25T06:38:19.832Z,45.06
2023-06-25T06:40:48.321Z,45.24
2023-06-25T06:43:16.802Z,45.43
2023-06-25T06:45:44.965Z,44.76
2023-06-25T06:48:13.408Z,45.36
2023-06-25T06:50:41.685Z,46.18
2023-06-25T06:53:10.666Z,43.72
2023-06-25T06:55:39.366Z,43.90
2023-06-25T06:58:07.692Z,44.05
2023-06-25T07:00:36.009Z,43.37
2023-06-25T07:03:04.480Z,43.59
2023-06-25T07:05:32.933Z,42.89
2023-06-25T07:08:01.249Z,43.10
2023-06-25T07:10:30.037Z,42.73
2023-06-25T07:12:58.311Z,42.70
2023-06-25T07:15:26.835Z,42.39
2023-06-25T07:17:55.294Z,40.58
2023-06-25T07:20:23.756Z,41.28
2023-06-25T07:22:52.543Z,41.13
2023-06-25T07:25:21.360Z,40.80
2023-06-25T07:27:50.382Z,40.30
2023-06-25T07:30:18.605Z,40.45
2023-06-25T07:32:47.028Z,40.11
2023-06-25T07:35:15.434Z,39.32
2023-06-25T07:37:43.633Z,37.53
2023-06-25T07:40:12.195Z,38.07
2023-06-25T07:42:40.510Z,35.53
2023-06-25T07:45:10.497Z,36.87
2023-06-25T07:47:39.638Z,37.04
2023-06-25T07:50:08.768Z,36.29
2023-06-25T07:52:36.986Z,36.10
2023-06-25T07:55:06.925Z,35.96
2023-06-25T07:57:35.538Z,35.04
2023-06-25T08:00:04.651Z,35.45
2023-06-25T08:02:41.219Z,35.82
2023-06-25T08:05:09.944Z,36.00
2023-06-25T08:07:38.907Z,35.70
2023-06-25T08:10:07.828Z,34.33
2023-06-25T08:12:36.006Z,34.37
2023-06-25T08:15:05.248Z,36.02
2023-06-25T08:17:34.979Z,35.83
2023-06-25T08:20:03.814Z,35.12
2023-06-25T08:22:32.029Z,35.68
2023-06-25T08:25:00.352Z,35.40
2023-06-25T08:27:28.739Z,34.91
2023-06-25T08:29:56.980Z,34.42
2023-06-25T08:32:25.260Z,33.58
2023-06-25T08:34:53.819Z,34.06
2023-06-25T08:37:22.458Z,35.36
2023-06-25T08:39:50.859Z,35.12
2023-06-25T08:42:19.134Z,33.54
2023-06-25T08:44:47.908Z,33.28
2023-06-25T08:47:20.956Z,33.30
2023-06-25T08:49:52.094Z,32.92
2023-06-25T08:52:22.223Z,33.28
2023-06-25T08:54:52.065Z,33.29
2023-06-25T08:57:20.911Z,33.38
2023-06-25T08:59:49.392Z,33.72
2023-06-25T09:02:17.994Z,33.54
2023-06-25T09:04:48.192Z,34.28
2023-06-25T09:07:21.200Z,34.09
2023-06-25T09:09:55.862Z,33.71
2023-06-25T09:12:26.540Z,33.56
2023-06-25T09:14:58.347Z,34.20
2023-06-25T09:17:26.985Z,33.57
2023-06-25T09:19:55.619Z,33.56
2023-06-25T09:22:24.078Z,34.11
2023-06-25T09:24:52.342Z,33.69
2023-06-25T09:27:21.943Z,33.31
2023-06-25T09:29:50.578Z,33.43
2023-06-25T09:32:19.205Z,33.04
2023-06-25T09:34:48.003Z,34.11
2023-06-25T09:37:16.418Z,34.55
2023-06-25T09:39:44.821Z,34.82
2023-06-25T09:42:13.746Z,34.44
2023-06-25T09:44:43.463Z,34.52
2023-06-25T09:47:16.854Z,34.52
2023-06-25T09:49:45.852Z,34.11
2023-06-25T09:52:15.988Z,34.35
2023-06-25T09:54:46.237Z,33.63
2023-06-25T09:57:17.856Z,34.02
2023-06-25T09:59:47.301Z,33.88
2023-06-25T10:02:17.451Z,34.83
2023-06-25T10:04:46.225Z,33.54
2023-06-25T10:07:15.671Z,33.59
2023-06-25T10:09:56.647Z,34.29
2023-06-25T10:12:25.084Z,34.12
2023-06-25T10:14:55.710Z,33.34
2023-06-25T10:17:25.259Z,32.88
2023-06-25T10:19:57.904Z,32.77
2023-06-25T10:22:28.969Z,32.38
2023-06-25T10:24:58.083Z,32.42
2023-06-25T10:27:26.409Z,33.03
2023-06-25T10:29:55.859Z,33.80
2023-06-25T10:32:29.021Z,33.24
2023-06-25T10:35:01.698Z,32.99
2023-06-25T10:37:35.024Z,33.24
2023-06-25T10:40:09.048Z,33.63
2023-06-25T10:42:38.902Z,34.03
2023-06-25T10:45:08.311Z,32.99
2023-06-25T10:47:37.213Z,33.80
2023-06-25T10:50:06.043Z,32.72
2023-06-25T10:52:35.033Z,33.16
2023-06-25T10:55:04.070Z,33.02
2023-06-25T10:57:33.369Z,33.43
2023-06-25T11:00:02.071Z,33.32
2023-06-25T11:02:31.810Z,32.86
2023-06-25T11:05:00.663Z,32.88
2023-06-25T11:07:29.254Z,32.47
2023-06-25T11:10:01.572Z,32.70
2023-06-25T11:12:31.030Z,32.12
2023-06-25T11:15:00.410Z,32.54
2023-06-25T11:17:29.198Z,32.30
2023-06-25T11:19:59.498Z,31.73
2023-06-25T11:22:28.063Z,31.63
2023-06-25T11:24:58.118Z,31.92
2023-06-25T11:27:28.384Z,32.52
2023-06-25T11:29:57.093Z,32.08
2023-06-25T11:32:28.992Z,31.81
2023-06-25T11:34:59.692Z,32.04
2023-06-25T11:37:33.196Z,32.60
2023-06-25T11:40:02.314Z,32.42
2023-06-25T11:42:32.425Z,32.35
2023-06-25T11:45:08.275Z,31.22
2023-06-25T11:47:37.105Z,31.94
2023-06-25T11:50:06.042Z,31.37
2023-06-25T11:52:35.280Z,30.96
2023-06-25T11:55:04.019Z,31.23
2023-06-25T11:57:32.515Z,30.03
2023-06-25T12:00:01.000Z,30.61
2023-06-25T12:02:44.526Z,30.49
2023-06-25T12:05:17.950Z,31.05
2023-06-25T12:07:46.605Z,31.18
2023-06-25T12:10:14.990Z,30.84
2023-06-25T12:12:45.621Z,30.94
2023-06-25T12:15:14.220Z,30.76
2023-06-25T12:17:43.864Z,30.80
2023-06-25T12:20:12.426Z,31.05
2023-06-25T12:22:40.833Z,31.22
2023-06-25T12:25:09.414Z,31.37
2023-06-25T12:27:40.862Z,31.05
2023-06-25T12:30:10.288Z,30.36
2023-06-25T12:32:38.677Z,30.14
2023-06-25T12:35:07.692Z,30.84
2023-06-25T12:37:35.933Z,30.44
2023-06-25T12:40:07.027Z,31.23
2023-06-25T12:42:36.419Z,31.30
2023-06-25T12:45:04.897Z,30.59
2023-06-25T12:47:33.274Z,30.82
2023-06-25T12:50:02.087Z,30.53
2023-06-25T12:52:31.980Z,30.48
2023-06-25T12:55:00.363Z,30.31
2023-06-25T12:57:29.989Z,30.09
2023-06-25T12:59:58.506Z,30.21
2023-06-25T13:02:27.192Z,30.35
2023-06-25T13:04:55.470Z,30.29
2023-06-25T13:07:24.871Z,29.43
2023-06-25T13:09:53.959Z,30.15
2023-06-25T13:12:22.257Z,30.96
2023-06-25T13:14:50.619Z,29.93
2023-06-25T13:17:20.281Z,30.28
2023-06-25T13:19:48.902Z,30.29
2023-06-25T13:22:17.375Z,29.92
2023-06-25T13:24:45.680Z,29.83
2023-06-25T13:27:14.305Z,29.65
2023-06-25T13:29:43.198Z,28.64
2023-06-25T13:32:11.722Z,29.22
2023-06-25T13:34:40.328Z,29.00
2023-06-25T13:37:08.703Z,29.25
2023-06-25T13:39:39.245Z,29.15
2023-06-25T13:42:08.366Z,29.25
2023-06-25T13:44:36.753Z,29.11
2023-06-25T13:47:05.588Z,28.30
2023-06-25T13:49:33.928Z,29.08
2023-06-25T13:52:03.017Z,29.31
2023-06-25T13:54:31.967Z,28.13
2023-06-25T13:57:05.297Z,28.78
2023-06-25T13:59:35.746Z,28.28
2023-06-25T14:02:07.071Z,28.14
2023-06-25T14:04:40.566Z,28.57
2023-06-25T14:07:11.987Z,28.33
2023-06-25T14:09:45.595Z,28.79
2023-06-25T14:12:15.074Z,27.64
2023-06-25T14:14:44.077Z,28.81
2023-06-25T14:17:13.665Z,28.53
2023-06-25T14:19:45.173Z,28.30
2023-06-25T14:22:16.792Z,28.70
2023-06-25T14:24:45.524Z,28.39
2023-06-25T14:27:14.292Z,28.18
2023-06-25T14:29:42.596Z,27.92
2023-06-25T14:32:10.948Z,28.42
2023-06-25T14:34:39.317Z,28.71
2023-06-25T14:37:07.869Z,27.99
2023-06-25T14:39:36.153Z,28.22
2023-06-25T14:42:04.884Z,28.84
2023-06-25T14:44:33.444Z,28.36
2023-06-25T14:47:01.913Z,28.41
2023-06-25T14:49:30.289Z,28.52
2023-06-25T14:51:58.832Z,28.49
2023-06-25T14:54:27.257Z,30.12
2023-06-25T14:56:55.488Z,28.80
2023-06-25T14:59:23.950Z,29.13
2023-06-25T15:01:52.621Z,28.42
2023-06-25T15:04:21.339Z,28.95
2023-06-25T15:06:50.168Z,29.29
2023-06-25T15:09:19.981Z,28.95
2023-06-25T15:11:50.098Z,29.49
2023-06-25T15:14:22.989Z,28.60
2023-06-25T15:16:51.423Z,28.11
2023-06-25T15:19:19.738Z,28.99
2023-06-25T15:21:48.105Z,27.99
2023-06-25T15:24:16.583Z,28.62
2023-06-25T15:26:45.092Z,28.70
2023-06-25T15:29:13.474Z,27.59
2023-06-25T15:31:41.840Z,28.28
2023-06-25T15:34:11.260Z,28.74
2023-06-25T15:36:41.620Z,29.20
2023-06-25T15:39:10.071Z,29.72
2023-06-25T15:41:39.543Z,28.56
2023-06-25T15:44:07.990Z,29.60
2023-06-25T15:46:41.397Z,29.63
2023-06-25T15:49:10.089Z,30.22
2023-06-25T15:51:40.358Z,29.47
2023-06-25T15:56:41.672Z,30.52
2023-06-25T15:59:11.374Z,30.15
2023-06-25T16:01:40.033Z,30.65
2023-06-25T16:04:08.570Z,31.07
2023-06-25T16:06:36.763Z,31.20
2023-06-25T16:09:05.141Z,31.04
2023-06-25T16:11:34.092Z,31.91
2023-06-25T16:14:03.693Z,31.52
2023-06-25T16:16:32.768Z,31.20
2023-06-25T16:19:22.128Z,32.12
2023-06-25T16:21:50.223Z,30.84
2023-06-25T16:24:18.710Z,31.41
2023-06-25T16:26:49.649Z,31.60
2023-06-25T16:29:19.848Z,32.26
2023-06-25T16:31:49.762Z,31.82
2023-06-25T16:34:18.023Z,32.55
2023-06-25T16:36:46.242Z,32.61
2023-06-25T16:39:14.834Z,32.33
2023-06-25T16:41:43.206Z,32.75
2023-06-25T16:44:11.539Z,32.98
2023-06-25T16:46:40.880Z,33.15
2023-06-25T16:49:09.275Z,33.08
2023-06-25T16:51:37.705Z,32.64
2023-06-25T16:54:06.308Z,32.68
2023-06-25T16:56:36.038Z,33.63
2023-06-25T16:59:04.682Z,32.24
2023-06-25T17:01:35.931Z,32.79
2023-06-25T17:04:05.135Z,32.83
2023-06-25T17:06:33.611Z,32.06
2023-06-25T17:09:01.991Z,33.29
2023-06-25T17:11:32.692Z,32.81
2023-06-25T17:14:01.157Z,32.47
2023-06-25T17:16:29.493Z,32.77
2023-06-25T17:18:58.945Z,33.16
2023-06-25T17:21:27.300Z,33.39
2023-06-25T17:23:55.753Z,32.94
2023-06-25T17:26:24.236Z,32.65
2023-06-25T17:28:52.554Z,33.37
2023-06-25T17:31:21.272Z,33.82
2023-06-25T17:33:49.482Z,34.08
2023-06-25T17:36:17.898Z,34.32
2023-06-25T17:38:46.135Z,33.97
2023-06-25T17:41:16.713Z,34.65
2023-06-25T17:43:45.343Z,33.99
2023-06-25T17:46:13.838Z,34.82
2023-06-25T17:48:42.460Z,34.13
2023-06-25T17:51:10.742Z,34.12
2023-06-25T17:53:39.142Z,34.08
2023-06-25T17:56:08.805Z,34.95
2023-06-25T17:58:37.326Z,35.14
2023-06-25T18:01:05.848Z,34.80
2023-06-25T18:03:34.686Z,35.25
2023-06-25T18:06:03.583Z,33.88
2023-06-25T18:08:32.101Z,35.17
2023-06-25T18:11:00.855Z,34.83
2023-06-25T18:13:29.589Z,35.17
2023-06-25T18:16:01.558Z,35.60
2023-06-25T18:18:32.017Z,35.73
2023-06-25T18:21:00.445Z,35.00
2023-06-25T18:23:28.934Z,36.12
2023-06-25T18:26:00.467Z,36.08
2023-06-25T18:28:29.536Z,36.42
2023-06-25T18:31:00.160Z,36.12
2023-06-25T18:33:28.591Z,35.11
2023-06-25T18:35:57.267Z,36.00
2023-06-25T18:38:26.760Z,35.93
2023-06-25T18:41:00.071Z,35.94
2023-06-25T18:43:32.044Z,36.40
2023-06-25T18:46:00.594Z,36.58
2023-06-25T18:48:29.162Z,36.60
2023-06-25T18:50:57.815Z,36.60
2023-06-25T18:53:26.780Z,36.19
2023-06-25T18:55:56.959Z,37.11
2023-06-25T18:58:25.323Z,37.02
2023-06-25T19:00:53.714Z,37.07
2023-06-25T19:03:22.299Z,37.33
2023-06-25T19:05:50.877Z,36.89
2023-06-25T19:08:19.619Z,37.33
2023-06-25T19:10:47.908Z,37.02
2023-06-25T19:13:16.325Z,37.30
2023-06-25T19:15:44.814Z,37.11
2023-06-25T19:18:14.152Z,37.72
2023-06-25T19:20:44.096Z,38.03
2023-06-25T19:25:44.519Z,37.60
2023-06-25T19:28:13.000Z,38.61
2023-06-25T19:30:42.806Z,38.53
2023-06-25T19:33:11.447Z,38.10
2023-06-25T19:35:39.909Z,37.93
2023-06-25T19:38:08.374Z,37.57
2023-06-25T19:40:37.522Z,37.63
2023-06-25T19:43:08.224Z,38.51
2023-06-25T19:45:37.135Z,39.00
2023-06-25T19:48:05.756Z,39.16
2023-06-25T19:50:37.758Z,38.92
2023-06-25T19:53:06.421Z,38.87
2023-06-25T19:55:37.573Z,39.26
2023-06-25T19:58:07.269Z,38.79
2023-06-25T20:00:36.083Z,39.34
2023-06-25T20:03:04.844Z,39.24
2023-06-25T20:05:33.202Z,40.10
2023-06-25T20:08:02.131Z,39.74
2023-06-25T20:10:30.702Z,40.19
2023-06-25T20:12:59.283Z,41.69
2023-06-25T20:15:27.981Z,41.54
2023-06-25T20:17:57.097Z,42.33
2023-06-25T20:20:25.962Z,42.38
2023-06-25T20:22:55.574Z,42.15
2023-06-25T20:25:28.084Z,42.99
2023-06-25T20:28:00.063Z,43.45
2023-06-25T20:30:35.284Z,43.90
2023-06-25T20:33:06.231Z,44.24
2023-06-25T20:35:37.715Z,44.11
2023-06-25T20:38:06.850Z,43.87
2023-06-25T20:40:35.456Z,44.25
2023-06-25T20:43:05.495Z,44.16
2023-06-25T20:45:34.140Z,44.89
2023-06-25T20:48:03.420Z,45.30
2023-06-25T20:50:32.110Z,45.59
2023-06-25T20:53:00.697Z,45.84
2023-06-25T20:55:29.542Z,46.22
2023-06-25T20:57:57.980Z,45.52
2023-06-25T21:00:26.447Z,46.28
2023-06-25T21:02:58.200Z,46.86
2023-06-25T21:05:26.839Z,47.10
2023-06-25T21:07:55.427Z,46.84
2023-06-25T21:10:23.854Z,46.59
2023-06-25T21:12:52.694Z,46.72
2023-06-25T21:15:21.219Z,47.26
2023-06-25T21:17:49.835Z,47.37
2023-06-25T21:20:18.414Z,46.74
2023-06-25T21:22:51.679Z,46.27
2023-06-25T21:25:22.076Z,46.85
2023-06-25T21:27:50.597Z,46.65
2023-06-25T21:30:21.898Z,46.96
2023-06-25T21:32:51.991Z,46.85
2023-06-25T21:35:20.710Z,45.88
2023-06-25T21:37:49.089Z,46.20
2023-06-25T21:40:17.517Z,46.54
2023-06-25T21:42:46.402Z,47.41
2023-06-25T21:45:16.582Z,47.62
2023-06-25T21:47:45.223Z,48.03
2023-06-25T21:50:13.708Z,48.14
2023-06-25T21:52:42.129Z,48.10
2023-06-25T21:55:10.500Z,48.18
2023-06-25T21:57:39.088Z,47.47
2023-06-25T22:00:13.198Z,47.70
2023-06-25T22:02:44.240Z,47.70
2023-06-25T22:05:12.330Z,47.86
2023-06-25T22:07:40.429Z,48.28
2023-06-25T22:10:08.542Z,47.84
2023-06-25T22:12:36.381Z,48.01
2023-06-25T22:15:04.576Z,47.98
2023-06-25T22:17:32.649Z,49.19
2023-06-25T22:20:01.218Z,49.81
2023-06-25T22:22:29.222Z,50.16
2023-06-25T22:24:57.093Z,50.26
2023-06-25T22:27:26.316Z,49.70
2023-06-25T22:29:54.241Z,49.50
2023-06-25T22:32:22.418Z,49.66
2023-06-25T22:34:50.375Z,49.35
2023-06-25T22:37:18.486Z,49.50
2023-06-25T22:39:46.396Z,50.50
2023-06-25T22:42:14.403Z,50.07
2023-06-25T22:44:42.347Z,50.82
2023-06-25T22:47:10.241Z,49.95
2023-06-25T22:49:38.108Z,50.05
2023-06-25T22:52:06.615Z,51.46
2023-06-25T22:54:34.554Z,51.68
2023-06-25T22:57:02.472Z,51.57
2023-06-25T22:59:30.492Z,51.34
2023-06-25T23:01:58.712Z,51.83
2023-06-25T23:04:26.844Z,52.24
2023-06-25T23:06:54.996Z,51.38
2023-06-25T23:09:23.002Z,51.64
2023-06-25T23:11:50.991Z,51.07
2023-06-25T23:14:18.923Z,51.37
2023-06-25T23:16:46.908Z,51.34
2023-06-25T23:19:18.387Z,50.64
2023-06-25T23:21:49.564Z,50.95
2023-06-25T23:24:17.538Z,51.42
2023-06-25T23:26:48.598Z,51.73
2023-06-25T23:29:18.188Z,51.47
2023-06-25T23:31:47.195Z,52.42
2023-06-25T23:34:15.216Z,53.27
2023-06-25T23:36:43.139Z,52.85
2023-06-25T23:39:10.999Z,53.34
2023-06-25T23:41:40.079Z,53.26
2023-06-25T23:44:08.109Z,53.16
2023-06-25T23:46:36.145Z,52.66
2023-06-25T23:49:05.418Z,52.92
2023-06-25T23:51:34.481Z,53.41
2023-06-25T23:54:02.561Z,54.22
2023-06-25T23:56:33.505Z,53.80
2023-06-25T23:59:05.093Z,54.61
